sensor_id;sensor_type;location;lat;lon;timestamp;P1;durP1;ratioP1;P2;durP2;ratioP2
60641;SDS011;46837;52.446;-1.930;2023-08-31T00:00:10;13.94;;;4.14;;
60641;SDS011;46837;52.446;-1.930;2023-08-31T00:01:07;7.08;;;3.60;;
60641;SDS011;46837;52.446;-1.930;2023-08-31T00:02:07;7.56;;;3.58;;
60641;SDS011;46837;52.446;-1.930;2023-08-31T00:03:07;8.58;;;3.78;;
60641;SDS011;46837;52.446;-1.930;2023-08-31T00:04:08;8.26;;;3.54;;
60641;SDS011;46837;52.446;-1.930;2023-08-31T00:05:07;12.28;;;3.74;;
60641;SDS011;46837;52.446;-1.930;2023-08-31T00:06:08;7.78;;;4.28;;
60641;SDS011;46837;52.446;-1.930;2023-08-31T00:07:07;8.88;;;5.22;;
60641;SDS011;46837;52.446;-1.930;2023-08-31T00:08:07;16.56;;;5.28;;
60641;SDS011;46837;52.446;-1.930;2023-08-31T00:09:10;10.98;;;4.46;;
60641;SDS011;46837;52.446;-1.930;2023-08-31T00:10:10;8.62;;;3.78;;
60641;SDS011;46837;52.446;-1.930;2023-08-31T00:11:07;5.68;;;3.34;;
60641;SDS011;46837;52.446;-1.930;2023-08-31T00:12:07;5.26;;;3.52;;
60641;SDS011;46837;52.446;-1.930;2023-08-31T00:13:07;7.66;;;3.10;;
60641;SDS011;46837;52.446;-1.930;2023-08-31T00:14:07;9.22;;;3.54;;
60641;SDS011;46837;52.446;-1.930;2023-08-31T00:15:07;7.88;;;3.78;;
60641;SDS011;46837;52.446;-1.930;2023-08-31T00:16:07;5.86;;;3.90;;
60641;SDS011;46837;52.446;-1.930;2023-08-31T00:17:07;8.40;;;3.20;;
60641;SDS011;46837;52.446;-1.930;2023-08-31T00:18:07;6.48;;;3.12;;
60641;SDS011;46837;52.446;-1.930;2023-08-31T00:19:07;8.02;;;2.68;;
60641;SDS011;46837;52.446;-1.930;2023-08-31T00:20:07;8.50;;;3.52;;
60641;SDS011;46837;52.446;-1.930;2023-08-31T00:21:07;6.88;;;3.56;;
60641;SDS011;46837;52.446;-1.930;2023-08-31T00:22:07;12.24;;;3.28;;
60641;SDS011;46837;52.446;-1.930;2023-08-31T00:23:07;4.76;;;2.70;;
60641;SDS011;46837;52.446;-1.930;2023-08-31T00:24:07;4.62;;;2.84;;
60641;SDS011;46837;52.446;-1.930;2023-08-31T00:25:09;11.24;;;4.32;;
60641;SDS011;46837;52.446;-1.930;2023-08-31T00:26:07;6.50;;;4.22;;
60641;SDS011;46837;52.446;-1.930;2023-08-31T00:27:07;7.84;;;4.76;;
60641;SDS011;46837;52.446;-1.930;2023-08-31T00:28:07;15.20;;;6.42;;
60641;SDS011;46837;52.446;-1.930;2023-08-31T00:29:07;6.00;;;4.68;;
60641;SDS011;46837;52.446;-1.930;2023-08-31T00:30:07;7.16;;;4.40;;
60641;SDS011;46837;52.446;-1.930;2023-08-31T00:31:07;6.92;;;4.18;;
60641;SDS011;46837;52.446;-1.930;2023-08-31T00:32:07;10.48;;;4.10;;
60641;SDS011;46837;52.446;-1.930;2023-08-31T00:33:07;4.86;;;3.54;;
60641;SDS011;46837;52.446;-1.930;2023-08-31T00:34:07;18.86;;;4.82;;
60641;SDS011;46837;52.446;-1.930;2023-08-31T00:35:07;7.58;;;3.70;;
60641;SDS011;46837;52.446;-1.930;2023-08-31T00:36:07;9.42;;;3.72;;
60641;SDS011;46837;52.446;-1.930;2023-08-31T00:37:07;7.64;;;2.10;;
60641;SDS011;46837;52.446;-1.930;2023-08-31T00:38:07;9.24;;;2.96;;
60641;SDS011;46837;52.446;-1.930;2023-08-31T00:39:07;4.04;;;2.22;;
60641;SDS011;46837;52.446;-1.930;2023-08-31T00:40:07;5.20;;;2.28;;
60641;SDS011;46837;52.446;-1.930;2023-08-31T00:41:07;7.48;;;2.64;;
60641;SDS011;46837;52.446;-1.930;2023-08-31T00:42:07;6.26;;;2.60;;
60641;SDS011;46837;52.446;-1.930;2023-08-31T00:43:07;4.14;;;1.88;;
60641;SDS011;46837;52.446;-1.930;2023-08-31T00:44:07;6.70;;;2.72;;
60641;SDS011;46837;52.446;-1.930;2023-08-31T00:45:07;6.72;;;3.28;;
60641;SDS011;46837;52.446;-1.930;2023-08-31T00:46:07;3.00;;;2.24;;
60641;SDS011;46837;52.446;-1.930;2023-08-31T00:47:07;3.92;;;2.22;;
60641;SDS011;46837;52.446;-1.930;2023-08-31T00:48:07;8.30;;;2.92;;
60641;SDS011;46837;52.446;-1.930;2023-08-31T00:49:07;9.20;;;2.50;;
60641;SDS011;46837;52.446;-1.930;2023-08-31T00:50:07;4.28;;;2.82;;
60641;SDS011;46837;52.446;-1.930;2023-08-31T00:51:07;7.26;;;2.76;;
60641;SDS011;46837;52.446;-1.930;2023-08-31T00:52:07;4.04;;;2.68;;
60641;SDS011;46837;52.446;-1.930;2023-08-31T00:53:07;8.10;;;3.26;;
60641;SDS011;46837;52.446;-1.930;2023-08-31T00:54:07;4.94;;;2.40;;
60641;SDS011;46837;52.446;-1.930;2023-08-31T00:55:07;6.20;;;2.46;;
60641;SDS011;46837;52.446;-1.930;2023-08-31T00:56:07;5.40;;;2.44;;
60641;SDS011;46837;52.446;-1.930;2023-08-31T00:57:07;9.18;;;3.20;;
60641;SDS011;46837;52.446;-1.930;2023-08-31T00:58:07;11.24;;;2.66;;
60641;SDS011;46837;52.446;-1.930;2023-08-31T00:59:07;7.32;;;2.78;;
60641;SDS011;46837;52.446;-1.930;2023-08-31T01:00:09;5.42;;;2.84;;
60641;SDS011;46837;52.446;-1.930;2023-08-31T01:01:11;4.64;;;2.34;;
60641;SDS011;46837;52.446;-1.930;2023-08-31T01:03:09;6.06;;;2.20;;
60641;SDS011;46837;52.446;-1.930;2023-08-31T01:04:14;6.32;;;2.56;;
60641;SDS011;46837;52.446;-1.930;2023-08-31T01:06:10;3.44;;;1.90;;
60641;SDS011;46837;52.446;-1.930;2023-08-31T01:07:10;4.22;;;2.48;;
60641;SDS011;46837;52.446;-1.930;2023-08-31T01:10:11;7.60;;;3.20;;
60641;SDS011;46837;52.446;-1.930;2023-08-31T01:11:17;5.94;;;2.94;;
60641;SDS011;46837;52.446;-1.930;2023-08-31T01:12:10;6.36;;;3.26;;
60641;SDS011;46837;52.446;-1.930;2023-08-31T01:13:11;8.18;;;4.00;;
60641;SDS011;46837;52.446;-1.930;2023-08-31T01:14:09;9.20;;;4.42;;
60641;SDS011;46837;52.446;-1.930;2023-08-31T01:15:10;4.52;;;3.02;;
60641;SDS011;46837;52.446;-1.930;2023-08-31T01:16:07;4.98;;;2.82;;
60641;SDS011;46837;52.446;-1.930;2023-08-31T01:17:07;4.78;;;2.08;;
60641;SDS011;46837;52.446;-1.930;2023-08-31T01:18:07;7.28;;;3.10;;
60641;SDS011;46837;52.446;-1.930;2023-08-31T01:19:08;4.28;;;2.58;;
60641;SDS011;46837;52.446;-1.930;2023-08-31T01:20:10;6.48;;;3.28;;
60641;SDS011;46837;52.446;-1.930;2023-08-31T01:22:07;4.12;;;2.48;;
60641;SDS011;46837;52.446;-1.930;2023-08-31T01:23:10;6.38;;;2.88;;
60641;SDS011;46837;52.446;-1.930;2023-08-31T01:24:07;2.60;;;2.00;;
60641;SDS011;46837;52.446;-1.930;2023-08-31T01:25:07;4.34;;;2.56;;
60641;SDS011;46837;52.446;-1.930;2023-08-31T01:26:07;6.88;;;2.04;;
60641;SDS011;46837;52.446;-1.930;2023-08-31T01:27:07;11.58;;;3.48;;
60641;SDS011;46837;52.446;-1.930;2023-08-31T01:28:07;4.00;;;2.28;;
60641;SDS011;46837;52.446;-1.930;2023-08-31T01:29:07;5.64;;;2.70;;
60641;SDS011;46837;52.446;-1.930;2023-08-31T01:30:07;7.34;;;2.62;;
60641;SDS011;46837;52.446;-1.930;2023-08-31T01:31:10;5.28;;;2.66;;
60641;SDS011;46837;52.446;-1.930;2023-08-31T01:32:07;4.82;;;2.78;;
60641;SDS011;46837;52.446;-1.930;2023-08-31T01:33:07;8.70;;;2.40;;
60641;SDS011;46837;52.446;-1.930;2023-08-31T01:34:07;5.32;;;2.14;;
60641;SDS011;46837;52.446;-1.930;2023-08-31T01:35:07;3.92;;;1.98;;
60641;SDS011;46837;52.446;-1.930;2023-08-31T01:37:09;6.04;;;2.68;;
60641;SDS011;46837;52.446;-1.930;2023-08-31T01:38:09;3.62;;;2.40;;
60641;SDS011;46837;52.446;-1.930;2023-08-31T01:39:11;6.62;;;2.50;;
60641;SDS011;46837;52.446;-1.930;2023-08-31T01:41:07;4.72;;;2.20;;
60641;SDS011;46837;52.446;-1.930;2023-08-31T01:42:07;6.12;;;2.26;;
60641;SDS011;46837;52.446;-1.930;2023-08-31T01:43:07;4.28;;;2.40;;
60641;SDS011;46837;52.446;-1.930;2023-08-31T01:44:07;6.16;;;2.44;;
60641;SDS011;46837;52.446;-1.930;2023-08-31T01:45:07;4.56;;;2.12;;
60641;SDS011;46837;52.446;-1.930;2023-08-31T01:46:07;6.80;;;2.82;;
60641;SDS011;46837;52.446;-1.930;2023-08-31T01:47:07;11.60;;;5.82;;
60641;SDS011;46837;52.446;-1.930;2023-08-31T01:48:07;7.46;;;3.54;;
60641;SDS011;46837;52.446;-1.930;2023-08-31T01:49:07;6.92;;;3.28;;
60641;SDS011;46837;52.446;-1.930;2023-08-31T01:50:07;5.92;;;3.18;;
60641;SDS011;46837;52.446;-1.930;2023-08-31T01:51:10;4.04;;;2.16;;
60641;SDS011;46837;52.446;-1.930;2023-08-31T01:52:07;9.78;;;3.16;;
60641;SDS011;46837;52.446;-1.930;2023-08-31T01:53:07;7.30;;;2.80;;
60641;SDS011;46837;52.446;-1.930;2023-08-31T01:54:07;5.04;;;1.82;;
60641;SDS011;46837;52.446;-1.930;2023-08-31T01:55:07;7.64;;;1.86;;
60641;SDS011;46837;52.446;-1.930;2023-08-31T01:56:07;4.28;;;1.72;;
60641;SDS011;46837;52.446;-1.930;2023-08-31T01:57:07;5.70;;;2.12;;
60641;SDS011;46837;52.446;-1.930;2023-08-31T01:58:07;7.48;;;2.48;;
60641;SDS011;46837;52.446;-1.930;2023-08-31T01:59:07;7.98;;;2.62;;
60641;SDS011;46837;52.446;-1.930;2023-08-31T02:00:07;5.36;;;2.68;;
60641;SDS011;46837;52.446;-1.930;2023-08-31T02:01:08;6.08;;;2.34;;
60641;SDS011;46837;52.446;-1.930;2023-08-31T02:02:07;4.22;;;1.66;;
60641;SDS011;46837;52.446;-1.930;2023-08-31T02:03:07;6.66;;;2.32;;
60641;SDS011;46837;52.446;-1.930;2023-08-31T02:04:07;6.54;;;2.44;;
60641;SDS011;46837;52.446;-1.930;2023-08-31T02:05:07;3.54;;;2.40;;
60641;SDS011;46837;52.446;-1.930;2023-08-31T02:06:07;6.22;;;3.86;;
60641;SDS011;46837;52.446;-1.930;2023-08-31T02:07:07;4.46;;;2.22;;
60641;SDS011;46837;52.446;-1.930;2023-08-31T02:08:07;4.54;;;2.26;;
60641;SDS011;46837;52.446;-1.930;2023-08-31T02:09:07;5.50;;;2.68;;
60641;SDS011;46837;52.446;-1.930;2023-08-31T02:10:08;4.78;;;2.12;;
60641;SDS011;46837;52.446;-1.930;2023-08-31T02:11:07;3.82;;;1.72;;
60641;SDS011;46837;52.446;-1.930;2023-08-31T02:12:07;3.46;;;2.42;;
60641;SDS011;46837;52.446;-1.930;2023-08-31T02:13:07;5.56;;;2.34;;
60641;SDS011;46837;52.446;-1.930;2023-08-31T02:14:07;6.26;;;2.18;;
60641;SDS011;46837;52.446;-1.930;2023-08-31T02:15:07;4.84;;;2.34;;
60641;SDS011;46837;52.446;-1.930;2023-08-31T02:16:07;6.98;;;2.08;;
60641;SDS011;46837;52.446;-1.930;2023-08-31T02:17:07;4.64;;;2.18;;
60641;SDS011;46837;52.446;-1.930;2023-08-31T02:18:07;4.82;;;2.44;;
60641;SDS011;46837;52.446;-1.930;2023-08-31T02:19:07;5.04;;;2.74;;
60641;SDS011;46837;52.446;-1.930;2023-08-31T02:20:07;5.70;;;2.18;;
60641;SDS011;46837;52.446;-1.930;2023-08-31T02:21:08;7.06;;;2.80;;
60641;SDS011;46837;52.446;-1.930;2023-08-31T02:22:07;5.38;;;1.86;;
60641;SDS011;46837;52.446;-1.930;2023-08-31T02:23:07;5.36;;;2.60;;
60641;SDS011;46837;52.446;-1.930;2023-08-31T02:24:07;3.40;;;2.00;;
60641;SDS011;46837;52.446;-1.930;2023-08-31T02:25:07;4.18;;;2.18;;
60641;SDS011;46837;52.446;-1.930;2023-08-31T02:26:07;5.80;;;2.00;;
60641;SDS011;46837;52.446;-1.930;2023-08-31T02:27:07;8.20;;;2.54;;
60641;SDS011;46837;52.446;-1.930;2023-08-31T02:28:07;3.86;;;2.06;;
60641;SDS011;46837;52.446;-1.930;2023-08-31T02:29:07;6.30;;;3.00;;
60641;SDS011;46837;52.446;-1.930;2023-08-31T02:30:07;5.90;;;2.24;;
60641;SDS011;46837;52.446;-1.930;2023-08-31T02:31:07;5.06;;;2.02;;
60641;SDS011;46837;52.446;-1.930;2023-08-31T02:32:07;6.80;;;2.18;;
60641;SDS011;46837;52.446;-1.930;2023-08-31T02:33:07;7.52;;;2.52;;
60641;SDS011;46837;52.446;-1.930;2023-08-31T02:34:07;4.04;;;1.64;;
60641;SDS011;46837;52.446;-1.930;2023-08-31T02:35:07;3.06;;;1.70;;
60641;SDS011;46837;52.446;-1.930;2023-08-31T02:36:07;3.06;;;1.54;;
60641;SDS011;46837;52.446;-1.930;2023-08-31T02:37:07;3.66;;;1.76;;
60641;SDS011;46837;52.446;-1.930;2023-08-31T02:38:07;6.38;;;1.48;;
60641;SDS011;46837;52.446;-1.930;2023-08-31T02:39:07;5.12;;;2.28;;
60641;SDS011;46837;52.446;-1.930;2023-08-31T02:40:07;6.48;;;1.64;;
60641;SDS011;46837;52.446;-1.930;2023-08-31T02:41:07;11.34;;;1.88;;
60641;SDS011;46837;52.446;-1.930;2023-08-31T02:42:07;5.06;;;2.54;;
60641;SDS011;46837;52.446;-1.930;2023-08-31T02:43:07;6.40;;;2.36;;
60641;SDS011;46837;52.446;-1.930;2023-08-31T02:44:07;11.80;;;4.20;;
60641;SDS011;46837;52.446;-1.930;2023-08-31T02:45:07;6.46;;;3.18;;
60641;SDS011;46837;52.446;-1.930;2023-08-31T02:46:07;4.16;;;2.52;;
60641;SDS011;46837;52.446;-1.930;2023-08-31T02:47:07;5.70;;;2.60;;
60641;SDS011;46837;52.446;-1.930;2023-08-31T02:48:07;5.56;;;2.84;;
60641;SDS011;46837;52.446;-1.930;2023-08-31T02:49:07;6.94;;;3.50;;
60641;SDS011;46837;52.446;-1.930;2023-08-31T02:50:07;11.88;;;2.90;;
60641;SDS011;46837;52.446;-1.930;2023-08-31T02:51:07;5.10;;;3.44;;
60641;SDS011;46837;52.446;-1.930;2023-08-31T02:52:07;10.08;;;4.10;;
60641;SDS011;46837;52.446;-1.930;2023-08-31T02:53:07;8.16;;;3.08;;
60641;SDS011;46837;52.446;-1.930;2023-08-31T02:54:07;5.34;;;2.70;;
60641;SDS011;46837;52.446;-1.930;2023-08-31T02:55:07;3.26;;;2.08;;
60641;SDS011;46837;52.446;-1.930;2023-08-31T02:56:07;7.76;;;2.24;;
60641;SDS011;46837;52.446;-1.930;2023-08-31T02:57:07;4.74;;;2.26;;
60641;SDS011;46837;52.446;-1.930;2023-08-31T02:58:07;14.00;;;3.84;;
60641;SDS011;46837;52.446;-1.930;2023-08-31T02:59:07;5.10;;;2.54;;
60641;SDS011;46837;52.446;-1.930;2023-08-31T03:00:09;9.66;;;3.04;;
60641;SDS011;46837;52.446;-1.930;2023-08-31T03:01:10;7.10;;;2.10;;
60641;SDS011;46837;52.446;-1.930;2023-08-31T03:02:07;4.28;;;2.18;;
60641;SDS011;46837;52.446;-1.930;2023-08-31T03:03:07;5.60;;;2.42;;
60641;SDS011;46837;52.446;-1.930;2023-08-31T03:04:07;4.60;;;2.22;;
60641;SDS011;46837;52.446;-1.930;2023-08-31T03:05:07;4.34;;;2.38;;
60641;SDS011;46837;52.446;-1.930;2023-08-31T03:06:07;6.94;;;2.10;;
60641;SDS011;46837;52.446;-1.930;2023-08-31T03:07:07;8.18;;;2.82;;
60641;SDS011;46837;52.446;-1.930;2023-08-31T03:08:07;4.58;;;2.04;;
60641;SDS011;46837;52.446;-1.930;2023-08-31T03:09:07;5.80;;;3.38;;
60641;SDS011;46837;52.446;-1.930;2023-08-31T03:10:07;3.88;;;2.00;;
60641;SDS011;46837;52.446;-1.930;2023-08-31T03:11:07;7.20;;;2.28;;
60641;SDS011;46837;52.446;-1.930;2023-08-31T03:12:07;6.78;;;2.54;;
60641;SDS011;46837;52.446;-1.930;2023-08-31T03:13:07;3.62;;;1.92;;
60641;SDS011;46837;52.446;-1.930;2023-08-31T03:14:07;4.04;;;2.50;;
60641;SDS011;46837;52.446;-1.930;2023-08-31T03:15:07;3.86;;;3.02;;
60641;SDS011;46837;52.446;-1.930;2023-08-31T03:16:07;6.04;;;2.54;;
60641;SDS011;46837;52.446;-1.930;2023-08-31T03:17:07;4.68;;;2.22;;
60641;SDS011;46837;52.446;-1.930;2023-08-31T03:18:07;6.54;;;2.06;;
60641;SDS011;46837;52.446;-1.930;2023-08-31T03:19:07;3.68;;;2.66;;
60641;SDS011;46837;52.446;-1.930;2023-08-31T03:20:07;4.42;;;2.06;;
60641;SDS011;46837;52.446;-1.930;2023-08-31T03:21:07;6.64;;;1.86;;
60641;SDS011;46837;52.446;-1.930;2023-08-31T03:22:07;4.44;;;1.80;;
60641;SDS011;46837;52.446;-1.930;2023-08-31T03:23:07;6.34;;;2.46;;
60641;SDS011;46837;52.446;-1.930;2023-08-31T03:24:07;3.50;;;1.94;;
60641;SDS011;46837;52.446;-1.930;2023-08-31T03:25:07;3.92;;;2.28;;
60641;SDS011;46837;52.446;-1.930;2023-08-31T03:26:07;6.24;;;2.82;;
60641;SDS011;46837;52.446;-1.930;2023-08-31T03:27:07;7.12;;;3.10;;
60641;SDS011;46837;52.446;-1.930;2023-08-31T03:28:07;5.18;;;2.80;;
60641;SDS011;46837;52.446;-1.930;2023-08-31T03:29:07;7.20;;;2.64;;
60641;SDS011;46837;52.446;-1.930;2023-08-31T03:30:07;8.40;;;3.42;;
60641;SDS011;46837;52.446;-1.930;2023-08-31T03:31:07;4.20;;;2.72;;
60641;SDS011;46837;52.446;-1.930;2023-08-31T03:32:07;4.48;;;2.02;;
60641;SDS011;46837;52.446;-1.930;2023-08-31T03:33:07;5.10;;;2.28;;
60641;SDS011;46837;52.446;-1.930;2023-08-31T03:34:07;5.98;;;2.30;;
60641;SDS011;46837;52.446;-1.930;2023-08-31T03:35:07;6.66;;;2.16;;
60641;SDS011;46837;52.446;-1.930;2023-08-31T03:36:07;4.10;;;2.22;;
60641;SDS011;46837;52.446;-1.930;2023-08-31T03:37:07;4.60;;;2.00;;
60641;SDS011;46837;52.446;-1.930;2023-08-31T03:38:07;3.46;;;1.78;;
60641;SDS011;46837;52.446;-1.930;2023-08-31T03:39:07;4.52;;;3.08;;
60641;SDS011;46837;52.446;-1.930;2023-08-31T03:40:07;7.98;;;2.64;;
60641;SDS011;46837;52.446;-1.930;2023-08-31T03:41:07;3.20;;;2.06;;
60641;SDS011;46837;52.446;-1.930;2023-08-31T03:42:07;4.62;;;1.68;;
60641;SDS011;46837;52.446;-1.930;2023-08-31T03:43:07;7.92;;;2.20;;
60641;SDS011;46837;52.446;-1.930;2023-08-31T03:44:07;4.26;;;2.18;;
60641;SDS011;46837;52.446;-1.930;2023-08-31T03:45:07;3.64;;;2.18;;
60641;SDS011;46837;52.446;-1.930;2023-08-31T03:46:07;3.08;;;1.82;;
60641;SDS011;46837;52.446;-1.930;2023-08-31T03:47:07;4.30;;;2.76;;
60641;SDS011;46837;52.446;-1.930;2023-08-31T03:48:07;6.76;;;2.00;;
60641;SDS011;46837;52.446;-1.930;2023-08-31T03:49:07;5.20;;;2.18;;
60641;SDS011;46837;52.446;-1.930;2023-08-31T03:50:07;7.82;;;2.00;;
60641;SDS011;46837;52.446;-1.930;2023-08-31T03:51:07;2.60;;;1.58;;
60641;SDS011;46837;52.446;-1.930;2023-08-31T03:52:07;5.32;;;2.14;;
60641;SDS011;46837;52.446;-1.930;2023-08-31T03:53:07;5.98;;;1.64;;
60641;SDS011;46837;52.446;-1.930;2023-08-31T03:54:07;6.56;;;3.16;;
60641;SDS011;46837;52.446;-1.930;2023-08-31T03:55:07;5.34;;;2.62;;
60641;SDS011;46837;52.446;-1.930;2023-08-31T03:56:07;4.84;;;1.66;;
60641;SDS011;46837;52.446;-1.930;2023-08-31T03:57:07;4.90;;;2.22;;
60641;SDS011;46837;52.446;-1.930;2023-08-31T03:58:07;8.96;;;2.58;;
60641;SDS011;46837;52.446;-1.930;2023-08-31T03:59:07;3.44;;;1.68;;
60641;SDS011;46837;52.446;-1.930;2023-08-31T04:00:11;6.00;;;2.30;;
60641;SDS011;46837;52.446;-1.930;2023-08-31T04:01:07;4.04;;;1.84;;
60641;SDS011;46837;52.446;-1.930;2023-08-31T04:02:07;5.30;;;2.24;;
60641;SDS011;46837;52.446;-1.930;2023-08-31T04:03:07;5.02;;;2.80;;
60641;SDS011;46837;52.446;-1.930;2023-08-31T04:04:07;4.58;;;2.42;;
60641;SDS011;46837;52.446;-1.930;2023-08-31T04:05:07;8.08;;;2.38;;
60641;SDS011;46837;52.446;-1.930;2023-08-31T04:06:07;2.34;;;2.06;;
60641;SDS011;46837;52.446;-1.930;2023-08-31T04:07:07;3.88;;;2.04;;
60641;SDS011;46837;52.446;-1.930;2023-08-31T04:08:07;7.62;;;2.42;;
60641;SDS011;46837;52.446;-1.930;2023-08-31T04:09:07;2.40;;;2.08;;
60641;SDS011;46837;52.446;-1.930;2023-08-31T04:10:07;5.14;;;2.16;;
60641;SDS011;46837;52.446;-1.930;2023-08-31T04:11:07;8.58;;;2.24;;
60641;SDS011;46837;52.446;-1.930;2023-08-31T04:12:07;4.30;;;2.02;;
60641;SDS011;46837;52.446;-1.930;2023-08-31T04:13:07;8.00;;;2.10;;
60641;SDS011;46837;52.446;-1.930;2023-08-31T04:14:07;5.40;;;1.70;;
60641;SDS011;46837;52.446;-1.930;2023-08-31T04:15:07;3.94;;;2.12;;
60641;SDS011;46837;52.446;-1.930;2023-08-31T04:16:07;4.26;;;2.64;;
60641;SDS011;46837;52.446;-1.930;2023-08-31T04:17:07;5.56;;;1.78;;
60641;SDS011;46837;52.446;-1.930;2023-08-31T04:18:07;4.40;;;1.80;;
60641;SDS011;46837;52.446;-1.930;2023-08-31T04:19:07;4.12;;;2.00;;
60641;SDS011;46837;52.446;-1.930;2023-08-31T04:20:07;5.08;;;1.60;;
60641;SDS011;46837;52.446;-1.930;2023-08-31T04:21:07;5.92;;;2.32;;
60641;SDS011;46837;52.446;-1.930;2023-08-31T04:22:07;7.94;;;2.20;;
60641;SDS011;46837;52.446;-1.930;2023-08-31T04:23:07;2.90;;;2.10;;
60641;SDS011;46837;52.446;-1.930;2023-08-31T04:24:07;4.02;;;1.46;;
60641;SDS011;46837;52.446;-1.930;2023-08-31T04:25:07;10.18;;;2.24;;
60641;SDS011;46837;52.446;-1.930;2023-08-31T04:26:10;5.28;;;1.64;;
60641;SDS011;46837;52.446;-1.930;2023-08-31T04:27:07;12.12;;;3.50;;
60641;SDS011;46837;52.446;-1.930;2023-08-31T04:28:07;6.38;;;2.44;;
60641;SDS011;46837;52.446;-1.930;2023-08-31T04:29:07;3.70;;;2.14;;
60641;SDS011;46837;52.446;-1.930;2023-08-31T04:30:07;6.18;;;1.96;;
60641;SDS011;46837;52.446;-1.930;2023-08-31T04:31:07;6.04;;;2.18;;
60641;SDS011;46837;52.446;-1.930;2023-08-31T04:32:07;6.66;;;2.86;;
60641;SDS011;46837;52.446;-1.930;2023-08-31T04:33:07;4.04;;;1.94;;
60641;SDS011;46837;52.446;-1.930;2023-08-31T04:34:07;3.00;;;1.72;;
60641;SDS011;46837;52.446;-1.930;2023-08-31T04:35:07;3.80;;;1.26;;
60641;SDS011;46837;52.446;-1.930;2023-08-31T04:36:07;4.06;;;1.74;;
60641;SDS011;46837;52.446;-1.930;2023-08-31T04:37:07;3.78;;;1.80;;
60641;SDS011;46837;52.446;-1.930;2023-08-31T04:38:07;2.72;;;1.66;;
60641;SDS011;46837;52.446;-1.930;2023-08-31T04:39:07;8.40;;;2.28;;
60641;SDS011;46837;52.446;-1.930;2023-08-31T04:40:07;4.04;;;1.90;;
60641;SDS011;46837;52.446;-1.930;2023-08-31T04:41:07;5.86;;;2.74;;
60641;SDS011;46837;52.446;-1.930;2023-08-31T04:42:07;4.92;;;1.96;;
60641;SDS011;46837;52.446;-1.930;2023-08-31T04:43:07;2.72;;;1.82;;
60641;SDS011;46837;52.446;-1.930;2023-08-31T04:44:07;4.72;;;2.10;;
60641;SDS011;46837;52.446;-1.930;2023-08-31T04:45:07;3.74;;;1.84;;
60641;SDS011;46837;52.446;-1.930;2023-08-31T04:46:07;5.52;;;2.04;;
60641;SDS011;46837;52.446;-1.930;2023-08-31T04:47:07;2.94;;;2.00;;
60641;SDS011;46837;52.446;-1.930;2023-08-31T04:48:07;5.22;;;2.72;;
60641;SDS011;46837;52.446;-1.930;2023-08-31T04:49:07;4.60;;;2.00;;
60641;SDS011;46837;52.446;-1.930;2023-08-31T04:50:07;3.64;;;1.90;;
60641;SDS011;46837;52.446;-1.930;2023-08-31T04:51:09;3.18;;;1.80;;
60641;SDS011;46837;52.446;-1.930;2023-08-31T04:52:07;3.60;;;1.68;;
60641;SDS011;46837;52.446;-1.930;2023-08-31T04:53:07;5.74;;;2.46;;
60641;SDS011;46837;52.446;-1.930;2023-08-31T04:54:07;5.40;;;2.12;;
60641;SDS011;46837;52.446;-1.930;2023-08-31T04:55:07;3.74;;;1.80;;
60641;SDS011;46837;52.446;-1.930;2023-08-31T04:56:07;5.90;;;2.74;;
60641;SDS011;46837;52.446;-1.930;2023-08-31T04:57:08;5.36;;;1.98;;
60641;SDS011;46837;52.446;-1.930;2023-08-31T04:58:07;4.12;;;1.76;;
60641;SDS011;46837;52.446;-1.930;2023-08-31T04:59:07;3.44;;;1.96;;
60641;SDS011;46837;52.446;-1.930;2023-08-31T05:00:07;3.28;;;1.56;;
60641;SDS011;46837;52.446;-1.930;2023-08-31T05:01:07;7.38;;;2.42;;
60641;SDS011;46837;52.446;-1.930;2023-08-31T05:02:07;7.44;;;2.26;;
60641;SDS011;46837;52.446;-1.930;2023-08-31T05:03:07;4.68;;;2.20;;
60641;SDS011;46837;52.446;-1.930;2023-08-31T05:04:07;5.14;;;2.02;;
60641;SDS011;46837;52.446;-1.930;2023-08-31T05:05:07;5.12;;;2.48;;
60641;SDS011;46837;52.446;-1.930;2023-08-31T05:06:07;4.68;;;1.66;;
60641;SDS011;46837;52.446;-1.930;2023-08-31T05:07:07;3.46;;;1.98;;
60641;SDS011;46837;52.446;-1.930;2023-08-31T05:08:07;2.90;;;1.66;;
60641;SDS011;46837;52.446;-1.930;2023-08-31T05:09:07;9.70;;;2.56;;
60641;SDS011;46837;52.446;-1.930;2023-08-31T05:10:07;5.74;;;2.54;;
60641;SDS011;46837;52.446;-1.930;2023-08-31T05:11:07;6.66;;;1.94;;
60641;SDS011;46837;52.446;-1.930;2023-08-31T05:12:07;3.68;;;2.02;;
60641;SDS011;46837;52.446;-1.930;2023-08-31T05:13:07;3.64;;;1.90;;
60641;SDS011;46837;52.446;-1.930;2023-08-31T05:14:07;3.60;;;1.88;;
60641;SDS011;46837;52.446;-1.930;2023-08-31T05:15:07;6.14;;;2.04;;
60641;SDS011;46837;52.446;-1.930;2023-08-31T05:16:07;5.46;;;2.18;;
60641;SDS011;46837;52.446;-1.930;2023-08-31T05:17:07;4.00;;;1.32;;
60641;SDS011;46837;52.446;-1.930;2023-08-31T05:18:07;5.08;;;2.14;;
60641;SDS011;46837;52.446;-1.930;2023-08-31T05:19:07;4.50;;;1.92;;
60641;SDS011;46837;52.446;-1.930;2023-08-31T05:20:07;3.08;;;1.80;;
60641;SDS011;46837;52.446;-1.930;2023-08-31T05:21:07;4.08;;;1.62;;
60641;SDS011;46837;52.446;-1.930;2023-08-31T05:22:07;4.20;;;1.86;;
60641;SDS011;46837;52.446;-1.930;2023-08-31T05:23:07;3.92;;;1.68;;
60641;SDS011;46837;52.446;-1.930;2023-08-31T05:24:07;5.04;;;1.70;;
60641;SDS011;46837;52.446;-1.930;2023-08-31T05:25:07;4.38;;;1.74;;
60641;SDS011;46837;52.446;-1.930;2023-08-31T05:26:07;4.02;;;2.12;;
60641;SDS011;46837;52.446;-1.930;2023-08-31T05:27:07;6.50;;;2.06;;
60641;SDS011;46837;52.446;-1.930;2023-08-31T05:28:07;3.44;;;1.86;;
60641;SDS011;46837;52.446;-1.930;2023-08-31T05:29:07;3.00;;;2.14;;
60641;SDS011;46837;52.446;-1.930;2023-08-31T05:30:07;8.82;;;2.76;;
60641;SDS011;46837;52.446;-1.930;2023-08-31T05:31:07;5.42;;;1.78;;
60641;SDS011;46837;52.446;-1.930;2023-08-31T05:32:07;5.52;;;2.08;;
60641;SDS011;46837;52.446;-1.930;2023-08-31T05:33:07;4.06;;;2.16;;
60641;SDS011;46837;52.446;-1.930;2023-08-31T05:34:09;3.16;;;1.80;;
60641;SDS011;46837;52.446;-1.930;2023-08-31T05:35:07;8.64;;;2.86;;
60641;SDS011;46837;52.446;-1.930;2023-08-31T05:36:07;5.20;;;2.08;;
60641;SDS011;46837;52.446;-1.930;2023-08-31T05:37:08;8.00;;;2.42;;
60641;SDS011;46837;52.446;-1.930;2023-08-31T05:38:07;6.82;;;2.30;;
60641;SDS011;46837;52.446;-1.930;2023-08-31T05:39:07;4.90;;;2.50;;
60641;SDS011;46837;52.446;-1.930;2023-08-31T05:40:11;3.86;;;1.92;;
60641;SDS011;46837;52.446;-1.930;2023-08-31T05:41:07;5.38;;;2.06;;
60641;SDS011;46837;52.446;-1.930;2023-08-31T05:42:07;5.24;;;2.08;;
60641;SDS011;46837;52.446;-1.930;2023-08-31T05:43:07;4.38;;;1.82;;
60641;SDS011;46837;52.446;-1.930;2023-08-31T05:44:07;3.76;;;1.74;;
60641;SDS011;46837;52.446;-1.930;2023-08-31T05:45:07;5.80;;;1.84;;
60641;SDS011;46837;52.446;-1.930;2023-08-31T05:46:07;6.00;;;2.20;;
60641;SDS011;46837;52.446;-1.930;2023-08-31T05:47:07;4.92;;;2.08;;
60641;SDS011;46837;52.446;-1.930;2023-08-31T05:48:07;4.98;;;2.12;;
60641;SDS011;46837;52.446;-1.930;2023-08-31T05:49:07;5.18;;;2.48;;
60641;SDS011;46837;52.446;-1.930;2023-08-31T05:50:07;3.30;;;1.98;;
60641;SDS011;46837;52.446;-1.930;2023-08-31T05:51:07;4.56;;;1.94;;
60641;SDS011;46837;52.446;-1.930;2023-08-31T05:52:07;5.46;;;2.10;;
60641;SDS011;46837;52.446;-1.930;2023-08-31T05:53:07;12.28;;;2.22;;
60641;SDS011;46837;52.446;-1.930;2023-08-31T05:54:07;5.54;;;2.26;;
60641;SDS011;46837;52.446;-1.930;2023-08-31T05:55:07;6.94;;;2.32;;
60641;SDS011;46837;52.446;-1.930;2023-08-31T05:56:07;4.32;;;1.92;;
60641;SDS011;46837;52.446;-1.930;2023-08-31T05:57:07;6.80;;;1.84;;
60641;SDS011;46837;52.446;-1.930;2023-08-31T05:58:07;5.28;;;2.16;;
60641;SDS011;46837;52.446;-1.930;2023-08-31T05:59:07;8.08;;;3.78;;
60641;SDS011;46837;52.446;-1.930;2023-08-31T06:00:08;5.18;;;2.42;;
60641;SDS011;46837;52.446;-1.930;2023-08-31T06:01:07;9.38;;;2.94;;
60641;SDS011;46837;52.446;-1.930;2023-08-31T06:02:07;7.84;;;2.58;;